sensor_id;sensor_type;location;lat;lon;timestamp;pressure;altitude;pressure_sealevel;temperature;humidity
54144;BME280;40050;47.324;18.792;2023-05-08T00:00:24;1007.98;;;14.32;54.86
54144;BME280;40050;47.324;18.792;2023-05-08T00:02:25;1007.96;;;14.30;54.98
54144;BME280;40050;47.324;18.792;2023-05-08T00:04:26;1007.98;;;14.25;54.88
54144;BME280;40050;47.324;18.792;2023-05-08T00:06:27;1007.97;;;14.22;54.75
54144;BME280;40050;47.324;18.792;2023-05-08T00:08:28;1007.93;;;14.15;54.91
54144;BME280;40050;47.324;18.792;2023-05-08T00:10:29;1007.97;;;14.14;55.11
54144;BME280;40050;47.324;18.792;2023-05-08T00:12:30;1007.98;;;14.11;55.16
54144;BME280;40050;47.324;18.792;2023-05-08T00:14:31;1008.01;;;14.06;55.26
54144;BME280;40050;47.324;18.792;2023-05-08T00:16:32;1008.06;;;14.04;55.40
54144;BME280;40050;47.324;18.792;2023-05-08T00:18:33;1008.08;;;14.01;55.38
54144;BME280;40050;47.324;18.792;2023-05-08T00:20:33;1008.10;;;13.95;55.46
54144;BME280;40050;47.324;18.792;2023-05-08T00:22:34;1008.11;;;13.90;55.51
54144;BME280;40050;47.324;18.792;2023-05-08T00:24:35;1008.17;;;13.91;55.80
54144;BME280;40050;47.324;18.792;2023-05-08T00:26:36;1008.22;;;13.87;55.75
54144;BME280;40050;47.324;18.792;2023-05-08T00:28:37;1008.11;;;13.74;55.61
54144;BME280;40050;47.324;18.792;2023-05-08T00:30:38;1008.23;;;13.75;55.60
54144;BME280;40050;47.324;18.792;2023-05-08T00:32:39;1008.24;;;13.72;55.64
54144;BME280;40050;47.324;18.792;2023-05-08T00:34:40;1008.23;;;13.67;55.79
54144;BME280;40050;47.324;18.792;2023-05-08T00:36:41;1008.21;;;13.61;55.87
54144;BME280;40050;47.324;18.792;2023-05-08T00:38:42;1008.27;;;13.61;55.97
54144;BME280;40050;47.324;18.792;2023-05-08T00:40:43;1008.24;;;13.59;56.28
54144;BME280;40050;47.324;18.792;2023-05-08T00:42:43;1008.12;;;13.49;56.46
54144;BME280;40050;47.324;18.792;2023-05-08T00:44:44;1008.22;;;13.54;56.51
54144;BME280;40050;47.324;18.792;2023-05-08T00:46:45;1008.27;;;13.53;56.62
54144;BME280;40050;47.324;18.792;2023-05-08T00:48:46;1008.33;;;13.51;56.73
54144;BME280;40050;47.324;18.792;2023-05-08T00:50:47;1008.35;;;13.48;56.45
54144;BME280;40050;47.324;18.792;2023-05-08T00:52:49;1008.35;;;13.40;56.41
54144;BME280;40050;47.324;18.792;2023-05-08T00:54:50;1008.08;;;13.08;56.33
54144;BME280;40050;47.324;18.792;2023-05-08T00:56:51;1008.40;;;13.23;56.23
54144;BME280;40050;47.324;18.792;2023-05-08T00:58:52;1008.44;;;13.20;56.47
54144;BME280;40050;47.324;18.792;2023-05-08T01:00:54;1008.45;;;13.15;56.73
54144;BME280;40050;47.324;18.792;2023-05-08T01:02:55;1008.41;;;13.08;56.86
54144;BME280;40050;47.324;18.792;2023-05-08T01:04:56;1008.43;;;13.05;57.10
54144;BME280;40050;47.324;18.792;2023-05-08T01:06:57;1008.44;;;13.02;57.04
54144;BME280;40050;47.324;18.792;2023-05-08T01:08:59;1008.41;;;12.97;57.10
54144;BME280;40050;47.324;18.792;2023-05-08T01:15:53;1008.09;;;12.53;57.11
54144;BME280;40050;47.324;18.792;2023-05-08T01:20:16;1008.54;;;12.74;57.38
54144;BME280;40050;47.324;18.792;2023-05-08T01:34:09;1008.65;;;12.53;57.93
54144;BME280;40050;47.324;18.792;2023-05-08T01:36:19;1008.66;;;12.52;57.84
54144;BME280;40050;47.324;18.792;2023-05-08T01:38:29;1008.65;;;12.45;57.85
54144;BME280;40050;47.324;18.792;2023-05-08T01:40:53;1008.69;;;12.44;57.94
54144;BME280;40050;47.324;18.792;2023-05-08T01:42:47;1008.68;;;12.39;57.92
54144;BME280;40050;47.324;18.792;2023-05-08T01:44:53;1008.62;;;12.34;57.90
54144;BME280;40050;47.324;18.792;2023-05-08T01:46:56;1008.73;;;12.31;57.98
54144;BME280;40050;47.324;18.792;2023-05-08T01:48:59;1008.77;;;12.27;58.12
54144;BME280;40050;47.324;18.792;2023-05-08T01:51:04;1008.79;;;12.25;58.17
54144;BME280;40050;47.324;18.792;2023-05-08T01:53:16;1008.77;;;12.19;58.32
54144;BME280;40050;47.324;18.792;2023-05-08T01:55:20;1008.83;;;12.14;58.45
54144;BME280;40050;47.324;18.792;2023-05-08T01:57:25;1008.82;;;12.12;58.61
54144;BME280;40050;47.324;18.792;2023-05-08T01:59:26;1008.83;;;12.11;58.61
54144;BME280;40050;47.324;18.792;2023-05-08T02:01:28;1008.88;;;12.09;58.66
54144;BME280;40050;47.324;18.792;2023-05-08T02:03:31;1008.89;;;12.06;58.82
54144;BME280;40050;47.324;18.792;2023-05-08T02:05:35;1008.89;;;12.06;59.00
54144;BME280;40050;47.324;18.792;2023-05-08T02:07:36;1008.90;;;12.04;59.10
54144;BME280;40050;47.324;18.792;2023-05-08T02:09:39;1008.88;;;12.02;59.23
54144;BME280;40050;47.324;18.792;2023-05-08T02:11:41;1008.86;;;11.99;59.27
54144;BME280;40050;47.324;18.792;2023-05-08T02:13:44;1008.89;;;11.99;59.31
54144;BME280;40050;47.324;18.792;2023-05-08T02:15:47;1008.91;;;11.99;59.57
54144;BME280;40050;47.324;18.792;2023-05-08T02:17:48;1008.89;;;11.98;59.72
54144;BME280;40050;47.324;18.792;2023-05-08T02:19:50;1008.91;;;11.97;59.57
54144;BME280;40050;47.324;18.792;2023-05-08T02:21:52;1008.91;;;11.98;59.55
54144;BME280;40050;47.324;18.792;2023-05-08T02:23:55;1008.94;;;11.98;59.62
54144;BME280;40050;47.324;18.792;2023-05-08T02:25:56;1008.87;;;11.96;59.69
54144;BME280;40050;47.324;18.792;2023-05-08T02:27:57;1008.92;;;11.98;59.81
54144;BME280;40050;47.324;18.792;2023-05-08T02:29:59;1008.81;;;11.91;59.99
54144;BME280;40050;47.324;18.792;2023-05-08T02:32:00;1008.95;;;11.94;59.90
54144;BME280;40050;47.324;18.792;2023-05-08T02:34:01;1008.99;;;11.94;59.82
54144;BME280;40050;47.324;18.792;2023-05-08T02:36:03;1008.97;;;11.92;59.92
54144;BME280;40050;47.324;18.792;2023-05-08T02:38:05;1008.98;;;11.93;60.10
54144;BME280;40050;47.324;18.792;2023-05-08T02:40:07;1009.02;;;11.92;60.16
54144;BME280;40050;47.324;18.792;2023-05-08T02:42:10;1009.00;;;11.90;60.08
54144;BME280;40050;47.324;18.792;2023-05-08T02:44:11;1009.00;;;11.89;60.13
54144;BME280;40050;47.324;18.792;2023-05-08T02:46:19;1008.99;;;11.88;60.19
54144;BME280;40050;47.324;18.792;2023-05-08T02:53:02;1009.01;;;11.74;60.35
54144;BME280;40050;47.324;18.792;2023-05-08T02:55:07;1008.98;;;11.72;60.51
54144;BME280;40050;47.324;18.792;2023-05-08T03:01:49;1009.08;;;11.68;60.72
54144;BME280;40050;47.324;18.792;2023-05-08T03:03:58;1009.13;;;11.67;60.67
54144;BME280;40050;47.324;18.792;2023-05-08T03:06:01;1008.98;;;11.62;60.67
54144;BME280;40050;47.324;18.792;2023-05-08T03:08:04;1008.93;;;11.68;60.60
54144;BME280;40050;47.324;18.792;2023-05-08T03:10:06;1009.11;;;11.69;60.62
54144;BME280;40050;47.324;18.792;2023-05-08T03:12:11;1009.11;;;11.70;60.57
54144;BME280;40050;47.324;18.792;2023-05-08T03:14:14;1009.12;;;11.70;60.52
54144;BME280;40050;47.324;18.792;2023-05-08T03:16:19;1009.09;;;11.68;60.51
54144;BME280;40050;47.324;18.792;2023-05-08T03:18:24;1009.14;;;11.66;60.56
54144;BME280;40050;47.324;18.792;2023-05-08T03:20:26;1009.15;;;11.63;60.67
54144;BME280;40050;47.324;18.792;2023-05-08T03:22:31;1009.10;;;11.62;61.02
54144;BME280;40050;47.324;18.792;2023-05-08T03:24:34;1009.00;;;11.58;61.31
54144;BME280;40050;47.324;18.792;2023-05-08T03:26:36;1009.08;;;11.63;61.37
54144;BME280;40050;47.324;18.792;2023-05-08T03:28:37;1009.16;;;11.67;61.51
54144;BME280;40050;47.324;18.792;2023-05-08T03:30:40;1009.12;;;11.67;61.71
54144;BME280;40050;47.324;18.792;2023-05-08T03:32:42;1009.17;;;11.69;61.65
54144;BME280;40050;47.324;18.792;2023-05-08T03:34:44;1009.17;;;11.66;61.67
54144;BME280;40050;47.324;18.792;2023-05-08T03:36:46;1009.17;;;11.65;61.85
54144;BME280;40050;47.324;18.792;2023-05-08T03:38:47;1009.13;;;11.65;61.93
54144;BME280;40050;47.324;18.792;2023-05-08T03:40:48;1009.21;;;11.70;62.24
54144;BME280;40050;47.324;18.792;2023-05-08T03:42:49;1009.18;;;11.70;62.35
54144;BME280;40050;47.324;18.792;2023-05-08T03:44:51;1009.21;;;11.74;62.66
54144;BME280;40050;47.324;18.792;2023-05-08T03:46:53;1009.18;;;11.75;62.76
54144;BME280;40050;47.324;18.792;2023-05-08T03:48:55;1008.93;;;11.61;62.79
54144;BME280;40050;47.324;18.792;2023-05-08T03:50:56;1009.25;;;11.81;62.90
54144;BME280;40050;47.324;18.792;2023-05-08T03:52:58;1009.24;;;11.83;63.05
54144;BME280;40050;47.324;18.792;2023-05-08T03:54:59;1009.21;;;11.84;63.04
54144;BME280;40050;47.324;18.792;2023-05-08T03:57:00;1009.23;;;11.89;62.94
54144;BME280;40050;47.324;18.792;2023-05-08T03:59:15;1009.25;;;11.90;62.71
54144;BME280;40050;47.324;18.792;2023-05-08T04:01:19;1009.20;;;11.87;62.81
54144;BME280;40050;47.324;18.792;2023-05-08T04:05:58;1009.27;;;11.93;63.17
54144;BME280;40050;47.324;18.792;2023-05-08T04:08:37;1009.26;;;12.00;63.42
54144;BME280;40050;47.324;18.792;2023-05-08T04:10:43;1009.29;;;12.06;63.49
54144;BME280;40050;47.324;18.792;2023-05-08T04:15:03;1009.35;;;12.12;63.41
54144;BME280;40050;47.324;18.792;2023-05-08T04:17:05;1009.41;;;12.16;63.47
54144;BME280;40050;47.324;18.792;2023-05-08T04:19:10;1009.44;;;12.21;63.57
54144;BME280;40050;47.324;18.792;2023-05-08T04:21:17;1009.46;;;12.23;63.59
54144;BME280;40050;47.324;18.792;2023-05-08T04:23:19;1009.41;;;12.24;63.65
54144;BME280;40050;47.324;18.792;2023-05-08T04:25:21;1009.24;;;12.17;63.73
54144;BME280;40050;47.324;18.792;2023-05-08T04:27:22;1009.49;;;12.34;63.74
54144;BME280;40050;47.324;18.792;2023-05-08T04:29:24;1009.50;;;12.36;63.66
54144;BME280;40050;47.324;18.792;2023-05-08T04:31:25;1009.52;;;12.39;63.68
54144;BME280;40050;47.324;18.792;2023-05-08T04:33:27;1009.56;;;12.47;63.67
54144;BME280;40050;47.324;18.792;2023-05-08T04:35:28;1009.60;;;12.53;63.67
54144;BME280;40050;47.324;18.792;2023-05-08T04:37:30;1009.58;;;12.58;63.41
54144;BME280;40050;47.324;18.792;2023-05-08T04:39:31;1009.67;;;12.61;63.38
54144;BME280;40050;47.324;18.792;2023-05-08T04:41:32;1009.66;;;12.63;63.69
54144;BME280;40050;47.324;18.792;2023-05-08T04:43:35;1009.69;;;12.68;63.64
54144;BME280;40050;47.324;18.792;2023-05-08T04:45:36;1009.74;;;12.72;63.62
54144;BME280;40050;47.324;18.792;2023-05-08T04:47:37;1009.80;;;12.76;63.81
54144;BME280;40050;47.324;18.792;2023-05-08T04:49:38;1009.75;;;12.79;63.94
54144;BME280;40050;47.324;18.792;2023-05-08T04:51:39;1009.79;;;12.84;63.93
54144;BME280;40050;47.324;18.792;2023-05-08T04:53:40;1009.84;;;12.89;64.18
54144;BME280;40050;47.324;18.792;2023-05-08T04:55:41;1009.83;;;12.97;64.50
54144;BME280;40050;47.324;18.792;2023-05-08T04:57:42;1009.84;;;13.01;64.24
54144;BME280;40050;47.324;18.792;2023-05-08T04:59:43;1009.77;;;13.01;64.25
54144;BME280;40050;47.324;18.792;2023-05-08T05:01:45;1009.80;;;13.12;63.92
54144;BME280;40050;47.324;18.792;2023-05-08T05:03:46;1009.86;;;13.18;64.03
54144;BME280;40050;47.324;18.792;2023-05-08T05:05:47;1009.82;;;13.19;64.11
54144;BME280;40050;47.324;18.792;2023-05-08T05:07:48;1009.84;;;13.23;63.98
54144;BME280;40050;47.324;18.792;2023-05-08T05:09:49;1009.86;;;13.26;63.74
54144;BME280;40050;47.324;18.792;2023-05-08T05:11:50;1009.82;;;13.30;63.49
54144;BME280;40050;47.324;18.792;2023-05-08T05:13:51;1009.92;;;13.32;62.65
54144;BME280;40050;47.324;18.792;2023-05-08T05:15:51;1009.93;;;13.31;62.91
54144;BME280;40050;47.324;18.792;2023-05-08T05:17:52;1009.98;;;13.35;62.67
54144;BME280;40050;47.324;18.792;2023-05-08T05:19:53;1009.99;;;13.40;62.62
54144;BME280;40050;47.324;18.792;2023-05-08T05:21:54;1009.98;;;13.46;62.78
54144;BME280;40050;47.324;18.792;2023-05-08T05:23:55;1009.97;;;13.48;62.61
54144;BME280;40050;47.324;18.792;2023-05-08T05:25:56;1009.97;;;13.51;62.73
54144;BME280;40050;47.324;18.792;2023-05-08T05:27:57;1009.93;;;13.53;62.29
54144;BME280;40050;47.324;18.792;2023-05-08T05:29:58;1010.02;;;13.60;62.14
54144;BME280;40050;47.324;18.792;2023-05-08T05:31:59;1010.00;;;13.64;62.19
54144;BME280;40050;47.324;18.792;2023-05-08T05:33:59;1009.96;;;13.66;62.41
54144;BME280;40050;47.324;18.792;2023-05-08T05:36:00;1009.98;;;13.71;61.85
54144;BME280;40050;47.324;18.792;2023-05-08T05:38:01;1009.99;;;13.79;61.29
54144;BME280;40050;47.324;18.792;2023-05-08T05:40:02;1010.03;;;13.80;61.33
54144;BME280;40050;47.324;18.792;2023-05-08T05:42:04;1010.06;;;13.87;62.05
54144;BME280;40050;47.324;18.792;2023-05-08T05:44:04;1010.01;;;13.89;61.89
54144;BME280;40050;47.324;18.792;2023-05-08T05:46:06;1010.00;;;13.93;61.53
54144;BME280;40050;47.324;18.792;2023-05-08T05:48:07;1010.08;;;13.97;61.26
54144;BME280;40050;47.324;18.792;2023-05-08T05:50:08;1010.08;;;14.02;60.38
54144;BME280;40050;47.324;18.792;2023-05-08T05:52:09;1010.11;;;14.03;60.68
54144;BME280;40050;47.324;18.792;2023-05-08T05:54:10;1010.12;;;14.10;61.33
54144;BME280;40050;47.324;18.792;2023-05-08T05:56:11;1010.03;;;14.11;60.33
54144;BME280;40050;47.324;18.792;2023-05-08T05:58:12;1010.16;;;14.20;60.20
54144;BME280;40050;47.324;18.792;2023-05-08T06:00:13;1010.14;;;14.20;59.73
54144;BME280;40050;47.324;18.792;2023-05-08T06:02:14;1010.11;;;14.31;59.79
54144;BME280;40050;47.324;18.792;2023-05-08T06:04:15;1010.11;;;14.27;59.61
54144;BME280;40050;47.324;18.792;2023-05-08T06:06:16;1010.12;;;14.25;59.59
54144;BME280;40050;47.324;18.792;2023-05-08T06:08:17;1010.13;;;14.30;59.84
54144;BME280;40050;47.324;18.792;2023-05-08T06:10:18;1010.16;;;14.35;59.96
54144;BME280;40050;47.324;18.792;2023-05-08T06:12:19;1010.08;;;14.40;59.17
54144;BME280;40050;47.324;18.792;2023-05-08T06:14:20;1010.10;;;14.41;59.19
54144;BME280;40050;47.324;18.792;2023-05-08T06:16:21;1010.15;;;14.39;60.08
54144;BME280;40050;47.324;18.792;2023-05-08T06:18:22;1010.11;;;14.38;59.94
54144;BME280;40050;47.324;18.792;2023-05-08T06:20:23;1010.15;;;14.47;59.92
54144;BME280;40050;47.324;18.792;2023-05-08T06:22:24;1009.85;;;14.33;59.83
54144;BME280;40050;47.324;18.792;2023-05-08T06:24:25;1009.98;;;14.47;59.29
54144;BME280;40050;47.324;18.792;2023-05-08T06:26:25;1010.17;;;14.57;59.51
54144;BME280;40050;47.324;18.792;2023-05-08T06:28:26;1010.17;;;14.64;59.61
54144;BME280;40050;47.324;18.792;2023-05-08T06:30:27;1010.19;;;14.73;59.08
54144;BME280;40050;47.324;18.792;2023-05-08T06:32:28;1010.17;;;14.78;59.00
54144;BME280;40050;47.324;18.792;2023-05-08T06:34:29;1010.12;;;14.83;59.07
54144;BME280;40050;47.324;18.792;2023-05-08T06:36:30;1010.18;;;14.91;59.12
54144;BME280;40050;47.324;18.792;2023-05-08T06:38:31;1010.20;;;14.91;58.91
54144;BME280;40050;47.324;18.792;2023-05-08T06:40:32;1010.20;;;14.88;59.41
54144;BME280;40050;47.324;18.792;2023-05-08T06:42:33;1010.17;;;14.93;59.52
54144;BME280;40050;47.324;18.792;2023-05-08T06:44:34;1010.17;;;15.04;59.29
54144;BME280;40050;47.324;18.792;2023-05-08T06:46:35;1010.12;;;15.08;58.65
54144;BME280;40050;47.324;18.792;2023-05-08T06:48:36;1010.16;;;15.17;58.44
54144;BME280;40050;47.324;18.792;2023-05-08T06:50:37;1010.22;;;15.18;58.56
54144;BME280;40050;47.324;18.792;2023-05-08T06:52:38;1010.27;;;15.26;58.12
54144;BME280;40050;47.324;18.792;2023-05-08T06:54:39;1010.24;;;15.32;57.74
54144;BME280;40050;47.324;18.792;2023-05-08T06:56:40;1010.07;;;15.27;55.76
54144;BME280;40050;47.324;18.792;2023-05-08T06:58:41;1010.31;;;15.43;55.47
54144;BME280;40050;47.324;18.792;2023-05-08T07:00:42;1010.29;;;15.49;55.96
54144;BME280;40050;47.324;18.792;2023-05-08T07:02:43;1010.20;;;15.55;55.33
54144;BME280;40050;47.324;18.792;2023-05-08T07:04:44;1010.27;;;15.66;55.08
54144;BME280;40050;47.324;18.792;2023-05-08T07:06:45;1010.35;;;15.74;55.47
54144;BME280;40050;47.324;18.792;2023-05-08T07:08:46;1010.37;;;15.83;55.10
54144;BME280;40050;47.324;18.792;2023-05-08T07:10:47;1010.29;;;15.90;55.80
54144;BME280;40050;47.324;18.792;2023-05-08T07:12:48;1010.34;;;16.03;54.11
54144;BME280;40050;47.324;18.792;2023-05-08T07:14:49;1010.33;;;16.08;54.13
54144;BME280;40050;47.324;18.792;2023-05-08T07:16:50;1010.28;;;16.14;53.17
54144;BME280;40050;47.324;18.792;2023-05-08T07:18:51;1010.26;;;16.24;53.14
54144;BME280;40050;47.324;18.792;2023-05-08T07:20:52;1010.05;;;16.17;51.98
54144;BME280;40050;47.324;18.792;2023-05-08T07:22:53;1010.36;;;16.38;52.44
54144;BME280;40050;47.324;18.792;2023-05-08T07:24:54;1010.00;;;16.26;52.51
54144;BME280;40050;47.324;18.792;2023-05-08T07:26:54;1010.35;;;16.55;52.53
54144;BME280;40050;47.324;18.792;2023-05-08T07:28:55;1010.32;;;16.64;52.24
54144;BME280;40050;47.324;18.792;2023-05-08T07:30:56;1010.34;;;16.74;50.34
54144;BME280;40050;47.324;18.792;2023-05-08T07:32:57;1010.34;;;16.79;50.38
54144;BME280;40050;47.324;18.792;2023-05-08T07:34:58;1010.33;;;16.80;49.85
54144;BME280;40050;47.324;18.792;2023-05-08T07:36:59;1010.32;;;16.85;49.00
54144;BME280;40050;47.324;18.792;2023-05-08T07:39:00;1010.38;;;16.91;47.70
54144;BME280;40050;47.324;18.792;2023-05-08T07:41:01;1010.33;;;16.89;47.43
54144;BME280;40050;47.324;18.792;2023-05-08T07:43:02;1010.29;;;17.01;47.74
54144;BME280;40050;47.324;18.792;2023-05-08T07:45:03;1010.40;;;17.05;47.89
54144;BME280;40050;47.324;18.792;2023-05-08T07:47:04;1010.41;;;17.10;48.17
54144;BME280;40050;47.324;18.792;2023-05-08T07:49:05;1010.11;;;16.90;47.70
54144;BME280;40050;47.324;18.792;2023-05-08T07:51:06;1010.48;;;17.19;48.59
54144;BME280;40050;47.324;18.792;2023-05-08T07:53:07;1010.49;;;17.20;48.83
54144;BME280;40050;47.324;18.792;2023-05-08T07:55:08;1010.46;;;17.24;49.59
54144;BME280;40050;47.324;18.792;2023-05-08T07:57:09;1010.46;;;17.34;49.08
54144;BME280;40050;47.324;18.792;2023-05-08T07:59:10;1010.42;;;17.49;48.87
54144;BME280;40050;47.324;18.792;2023-05-08T08:01:11;1010.41;;;17.68;49.45
54144;BME280;40050;47.324;18.792;2023-05-08T08:03:11;1010.38;;;17.85;48.58
54144;BME280;40050;47.324;18.792;2023-05-08T08:05:12;1010.40;;;18.07;48.87
54144;BME280;40050;47.324;18.792;2023-05-08T08:07:13;1010.34;;;18.30;46.59
54144;BME280;40050;47.324;18.792;2023-05-08T08:09:14;1010.32;;;18.60;46.75
54144;BME280;40050;47.324;18.792;2023-05-08T08:11:15;1010.28;;;18.91;45.53
54144;BME280;40050;47.324;18.792;2023-05-08T08:13:16;1010.29;;;19.16;45.04
54144;BME280;40050;47.324;18.792;2023-05-08T08:15:17;1010.31;;;19.36;44.93
54144;BME280;40050;47.324;18.792;2023-05-08T08:17:18;1010.21;;;19.55;43.42
54144;BME280;40050;47.324;18.792;2023-05-08T08:19:19;1010.25;;;19.70;42.41
54144;BME280;40050;47.324;18.792;2023-05-08T08:21:20;1010.27;;;19.93;43.38
54144;BME280;40050;47.324;18.792;2023-05-08T08:23:20;1010.22;;;20.20;41.13
54144;BME280;40050;47.324;18.792;2023-05-08T08:25:21;1010.22;;;20.33;41.11
54144;BME280;40050;47.324;18.792;2023-05-08T08:27:22;1010.28;;;20.54;42.40
54144;BME280;40050;47.324;18.792;2023-05-08T08:29:23;1010.31;;;20.83;41.58
54144;BME280;40050;47.324;18.792;2023-05-08T08:31:24;1010.27;;;21.00;38.51
54144;BME280;40050;47.324;18.792;2023-05-08T08:33:30;1010.23;;;21.14;38.36
54144;BME280;40050;47.324;18.792;2023-05-08T08:35:31;1010.24;;;21.29;38.75
54144;BME280;40050;47.324;18.792;2023-05-08T08:37:32;1010.18;;;21.45;38.93
54144;BME280;40050;47.324;18.792;2023-05-08T08:39:33;1010.24;;;21.65;37.79
54144;BME280;40050;47.324;18.792;2023-05-08T08:41:34;1010.27;;;21.81;37.14
54144;BME280;40050;47.324;18.792;2023-05-08T08:43:35;1010.25;;;21.89;36.91
54144;BME280;40050;47.324;18.792;2023-05-08T08:45:36;1010.21;;;22.09;36.84
54144;BME280;40050;47.324;18.792;2023-05-08T08:47:37;1010.23;;;22.20;37.75
54144;BME280;40050;47.324;18.792;2023-05-08T08:49:40;1010.22;;;22.35;37.09
54144;BME280;40050;47.324;18.792;2023-05-08T08:51:45;1010.17;;;22.55;36.31
54144;BME280;40050;47.324;18.792;2023-05-08T08:53:46;1010.15;;;22.66;34.90
54144;BME280;40050;47.324;18.792;2023-05-08T08:55:49;1010.11;;;22.66;34.80
54144;BME280;40050;47.324;18.792;2023-05-08T09:00:16;1010.11;;;22.68;35.51
54144;BME280;40050;47.324;18.792;2023-05-08T09:02:17;1010.16;;;22.84;34.91
54144;BME280;40050;47.324;18.792;2023-05-08T09:04:18;1010.10;;;22.98;34.90
54144;BME280;40050;47.324;18.792;2023-05-08T09:06:19;1010.15;;;23.02;34.91
54144;BME280;40050;47.324;18.792;2023-05-08T09:08:20;1010.11;;;23.16;34.98
54144;BME280;40050;47.324;18.792;2023-05-08T09:10:22;1010.14;;;23.29;34.61
54144;BME280;40050;47.324;18.792;2023-05-08T09:12:23;1010.09;;;23.31;33.33
54144;BME280;40050;47.324;18.792;2023-05-08T09:14:24;1010.09;;;23.28;34.18
54144;BME280;40050;47.324;18.792;2023-05-08T09:16:26;1010.13;;;23.34;33.99
54144;BME280;40050;47.324;18.792;2023-05-08T09:18:27;1009.85;;;23.32;33.38
54144;BME280;40050;47.324;18.792;2023-05-08T09:20:28;1010.05;;;23.52;33.38
54144;BME280;40050;47.324;18.792;2023-05-08T09:22:29;1010.02;;;23.67;33.60
54144;BME280;40050;47.324;18.792;2023-05-08T09:26:56;1010.06;;;23.82;33.71
54144;BME280;40050;47.324;18.792;2023-05-08T09:29:13;1010.03;;;23.92;33.69
54144;BME280;40050;47.324;18.792;2023-05-08T09:31:14;1009.98;;;23.92;33.76
54144;BME280;40050;47.324;18.792;2023-05-08T09:33:15;1010.03;;;23.98;34.43
54144;BME280;40050;47.324;18.792;2023-05-08T09:35:16;1009.99;;;24.13;33.62
54144;BME280;40050;47.324;18.792;2023-05-08T09:37:17;1009.96;;;24.20;33.30
54144;BME280;40050;47.324;18.792;2023-05-08T09:39:22;1010.00;;;24.32;32.93
54144;BME280;40050;47.324;18.792;2023-05-08T09:41:23;1009.98;;;24.24;31.90
54144;BME280;40050;47.324;18.792;2023-05-08T09:43:24;1009.74;;;23.97;31.86
54144;BME280;40050;47.324;18.792;2023-05-08T09:45:28;1009.69;;;23.84;31.75
54144;BME280;40050;47.324;18.792;2023-05-08T09:47:29;1009.94;;;23.90;31.89
54144;BME280;40050;47.324;18.792;2023-05-08T09:49:30;1009.88;;;23.83;33.34
54144;BME280;40050;47.324;18.792;2023-05-08T09:51:31;1009.86;;;23.76;33.15
54144;BME280;40050;47.324;18.792;2023-05-08T09:53:32;1009.86;;;23.60;32.50
54144;BME280;40050;47.324;18.792;2023-05-08T09:55:46;1009.85;;;23.62;33.51
54144;BME280;40050;47.324;18.792;2023-05-08T09:57:54;1009.88;;;23.60;33.05
54144;BME280;40050;47.324;18.792;2023-05-08T09:59:59;1009.81;;;23.58;33.06
54144;BME280;40050;47.324;18.792;2023-05-08T10:02:00;1009.87;;;23.61;34.08
54144;BME280;40050;47.324;18.792;2023-05-08T10:04:09;1009.86;;;23.61;34.01
54144;BME280;40050;47.324;18.792;2023-05-08T10:06:13;1009.86;;;23.63;34.47
54144;BME280;40050;47.324;18.792;2023-05-08T10:08:18;1009.86;;;23.57;32.65
54144;BME280;40050;47.324;18.792;2023-05-08T10:10:22;1009.88;;;23.52;33.63
54144;BME280;40050;47.324;18.792;2023-05-08T10:12:24;1009.81;;;23.51;33.05
54144;BME280;40050;47.324;18.792;2023-05-08T10:14:25;1009.51;;;23.24;34.42
54144;BME280;40050;47.324;18.792;2023-05-08T10:16:27;1009.80;;;23.46;33.92
54144;BME280;40050;47.324;18.792;2023-05-08T10:18:29;1009.70;;;23.44;33.08
54144;BME280;40050;47.324;18.792;2023-05-08T10:20:36;1009.72;;;23.50;32.60
54144;BME280;40050;47.324;18.792;2023-05-08T10:22:38;1009.71;;;23.42;32.32
54144;BME280;40050;47.324;18.792;2023-05-08T10:24:42;1009.64;;;23.42;32.69
54144;BME280;40050;47.324;18.792;2023-05-08T10:27:13;1009.67;;;23.37;34.51
54144;BME280;40050;47.324;18.792;2023-05-08T10:28:57;1009.69;;;23.42;33.89
54144;BME280;40050;47.324;18.792;2023-05-08T10:30:59;1009.59;;;23.47;32.37
54144;BME280;40050;47.324;18.792;2023-05-08T10:33:00;1009.57;;;23.37;32.02
54144;BME280;40050;47.324;18.792;2023-05-08T10:35:02;1009.57;;;23.39;33.54
54144;BME280;40050;47.324;18.792;2023-05-08T10:37:07;1009.48;;;23.40;32.43
54144;BME280;40050;47.324;18.792;2023-05-08T10:39:08;1009.47;;;23.40;32.04
54144;BME280;40050;47.324;18.792;2023-05-08T10:41:10;1009.46;;;23.44;32.83
54144;BME280;40050;47.324;18.792;2023-05-08T10:43:11;1009.50;;;23.51;32.36
54144;BME280;40050;47.324;18.792;2023-05-08T10:45:12;1009.53;;;23.53;32.29
54144;BME280;40050;47.324;18.792;2023-05-08T10:47:18;1009.43;;;23.58;31.75
54144;BME280;40050;47.324;18.792;2023-05-08T10:49:36;1009.50;;;23.55;32.73
54144;BME280;40050;47.324;18.792;2023-05-08T10:51:55;1009.48;;;23.57;31.93
54144;BME280;40050;47.324;18.792;2023-05-08T10:54:00;1009.51;;;23.59;31.62
54144;BME280;40050;47.324;18.792;2023-05-08T10:56:04;1009.47;;;23.71;30.33
54144;BME280;40050;47.324;18.792;2023-05-08T10:58:12;1009.42;;;23.61;30.76
54144;BME280;40050;47.324;18.792;2023-05-08T11:00:14;1009.48;;;23.65;30.79
54144;BME280;40050;47.324;18.792;2023-05-08T11:02:15;1009.36;;;23.60;30.21
54144;BME280;40050;47.324;18.792;2023-05-08T11:04:18;1009.38;;;23.64;29.63
54144;BME280;40050;47.324;18.792;2023-05-08T11:06:41;1009.31;;;23.61;29.88
54144;BME280;40050;47.324;18.792;2023-05-08T11:08:47;1009.36;;;23.42;30.79
54144;BME280;40050;47.324;18.792;2023-05-08T11:10:51;1009.29;;;23.52;31.74
54144;BME280;40050;47.324;18.792;2023-05-08T11:13:01;1009.39;;;23.52;30.41
54144;BME280;40050;47.324;18.792;2023-05-08T11:15:03;1009.34;;;23.51;30.14
54144;BME280;40050;47.324;18.792;2023-05-08T11:17:05;1009.39;;;23.46;30.27
54144;BME280;40050;47.324;18.792;2023-05-08T11:19:15;1009.33;;;23.49;28.45
54144;BME280;40050;47.324;18.792;2023-05-08T11:21:18;1009.40;;;23.41;29.24
54144;BME280;40050;47.324;18.792;2023-05-08T11:23:21;1009.30;;;23.37;29.52
54144;BME280;40050;47.324;18.792;2023-05-08T11:25:22;1009.31;;;23.45;29.54